createdAt,value
2023-02-06T00:00:48.282Z,0.60
2023-02-06T00:01:48.245Z,0.60
2023-02-06T00:02:48.236Z,0.60
2023-02-06T00:03:48.187Z,0.60
2023-02-06T00:04:48.175Z,0.60
2023-02-06T00:05:48.236Z,0.59
2023-02-06T00:06:48.169Z,0.59
2023-02-06T00:07:48.123Z,0.60
2023-02-06T00:08:48.089Z,0.59
2023-02-06T00:09:48.092Z,0.59
2023-02-06T00:10:48.089Z,0.60
2023-02-06T00:11:48.055Z,0.60
2023-02-06T00:12:48.056Z,0.60
2023-02-06T00:13:48.026Z,0.60
2023-02-06T00:14:47.990Z,0.59
2023-02-06T00:15:48.001Z,0.60
2023-02-06T00:16:47.954Z,0.60
2023-02-06T00:17:48.048Z,0.59
2023-02-06T00:18:47.936Z,0.58
2023-02-06T00:19:47.908Z,0.58
2023-02-06T00:20:47.897Z,0.57
2023-02-06T00:21:47.868Z,0.59
2023-02-06T00:22:47.857Z,0.58
2023-02-06T00:23:47.853Z,0.58
2023-02-06T00:24:47.822Z,0.59
2023-02-06T00:25:47.845Z,0.59
2023-02-06T00:26:47.782Z,0.58
2023-02-06T00:27:47.796Z,0.59
2023-02-06T00:28:47.772Z,0.58
2023-02-06T00:29:47.755Z,0.58
2023-02-06T00:30:47.816Z,0.58
2023-02-06T00:31:47.753Z,0.58
2023-02-06T00:32:47.726Z,0.58
2023-02-06T00:33:47.689Z,0.57
2023-02-06T00:34:47.687Z,0.57
2023-02-06T00:35:47.654Z,0.56
2023-02-06T00:36:47.648Z,0.58
2023-02-06T00:37:47.637Z,0.56
2023-02-06T00:38:47.587Z,0.56
2023-02-06T00:39:48.110Z,0.55
2023-02-06T00:40:47.558Z,0.56
2023-02-06T00:41:47.544Z,0.55
2023-02-06T00:42:47.529Z,0.54
2023-02-06T00:43:47.537Z,0.54
2023-02-06T00:44:49.108Z,0.54
2023-02-06T00:45:47.492Z,0.54
2023-02-06T00:46:47.469Z,0.54
2023-02-06T00:47:47.435Z,0.53
2023-02-06T00:48:47.442Z,0.52
2023-02-06T00:49:47.403Z,0.54
2023-02-06T00:50:47.410Z,0.54
2023-02-06T00:51:47.385Z,0.53
2023-02-06T00:52:47.351Z,0.53
2023-02-06T00:53:49.065Z,0.53
2023-02-06T00:54:47.346Z,0.53
2023-02-06T00:55:47.315Z,0.53
2023-02-06T00:56:47.311Z,0.52
2023-02-06T00:57:47.290Z,0.52
2023-02-06T00:58:47.295Z,0.53
2023-02-06T00:59:47.263Z,0.52
2023-02-06T01:00:48.124Z,0.52
2023-02-06T01:01:47.660Z,0.53
2023-02-06T01:02:47.492Z,0.53
2023-02-06T01:03:48.092Z,0.54
2023-02-06T01:04:47.191Z,0.54
2023-02-06T01:05:47.164Z,0.54
2023-02-06T01:06:47.174Z,0.53
2023-02-06T01:07:47.190Z,0.53
2023-02-06T01:08:47.131Z,0.53
2023-02-06T01:09:47.124Z,0.52
2023-02-06T01:10:47.122Z,0.52
2023-02-06T01:11:47.143Z,0.53
2023-02-06T01:12:47.071Z,0.53
2023-02-06T01:13:47.073Z,0.52
2023-02-06T01:14:47.062Z,0.53
2023-02-06T01:15:48.421Z,0.53
2023-02-06T01:16:47.066Z,0.53
2023-02-06T01:17:47.032Z,0.53
2023-02-06T01:18:47.055Z,0.53
2023-02-06T01:19:47.013Z,0.52
2023-02-06T01:20:47.001Z,0.53
2023-02-06T01:21:47.163Z,0.53
2023-02-06T01:22:46.973Z,0.53
2023-02-06T01:23:47.044Z,0.53
2023-02-06T01:24:46.952Z,0.53
2023-02-06T01:25:46.951Z,0.54
2023-02-06T01:26:46.936Z,0.53
2023-02-06T01:27:46.980Z,0.54
2023-02-06T01:28:46.921Z,0.54
2023-02-06T01:29:46.881Z,0.53
2023-02-06T01:30:46.919Z,0.54
2023-02-06T01:31:46.919Z,0.53
2023-02-06T01:32:46.852Z,0.53
2023-02-06T01:33:46.860Z,0.52
2023-02-06T01:34:46.832Z,0.53
2023-02-06T01:35:46.818Z,0.53
2023-02-06T01:36:46.855Z,0.54
2023-02-06T01:37:46.774Z,0.53
2023-02-06T01:38:46.737Z,0.54
2023-02-06T01:39:46.723Z,0.53
2023-02-06T01:40:47.600Z,0.55
2023-02-06T01:41:46.702Z,0.53
2023-02-06T01:42:46.701Z,0.53
2023-02-06T01:43:46.666Z,0.52
2023-02-06T01:44:46.645Z,0.53
2023-02-06T01:45:46.609Z,0.53
2023-02-06T01:46:46.610Z,0.53
2023-02-06T01:47:46.618Z,0.53
2023-02-06T01:48:47.122Z,0.52
2023-02-06T01:49:46.551Z,0.53
2023-02-06T01:50:46.548Z,0.52
2023-02-06T01:51:46.530Z,0.53
2023-02-06T01:52:46.540Z,0.52
2023-02-06T01:53:46.498Z,0.54
2023-02-06T01:54:46.489Z,0.53
2023-02-06T01:55:46.491Z,0.53
2023-02-06T01:56:46.461Z,0.53
2023-02-06T01:57:46.482Z,0.54
2023-02-06T01:58:46.547Z,0.53
2023-02-06T01:59:46.425Z,0.52
2023-02-06T02:00:46.413Z,0.53
2023-02-06T02:01:46.457Z,0.54
2023-02-06T02:02:46.412Z,0.54
2023-02-06T02:03:46.353Z,0.53
2023-02-06T02:04:46.337Z,0.53
2023-02-06T02:05:46.318Z,0.54
2023-02-06T02:06:46.293Z,0.54
2023-02-06T02:07:46.325Z,0.55
2023-02-06T02:08:46.273Z,0.54
2023-02-06T02:09:46.276Z,0.54
2023-02-06T02:10:46.247Z,0.54
2023-02-06T02:11:46.246Z,0.54
2023-02-06T02:12:46.233Z,0.54
2023-02-06T02:13:46.213Z,0.55
2023-02-06T02:14:46.218Z,0.54
2023-02-06T02:15:46.174Z,0.55
2023-02-06T02:16:46.180Z,0.54
2023-02-06T02:17:46.176Z,0.53
2023-02-06T02:18:46.156Z,0.54
2023-02-06T02:19:46.149Z,0.55
2023-02-06T02:20:46.128Z,0.53
2023-02-06T02:21:46.120Z,0.54
2023-02-06T02:22:46.137Z,0.53
2023-02-06T02:23:46.101Z,0.53
2023-02-06T02:24:46.089Z,0.54
2023-02-06T02:25:46.065Z,0.54
2023-02-06T02:26:46.053Z,0.53
2023-02-06T02:27:46.094Z,0.53
2023-02-06T02:28:46.033Z,0.53
2023-02-06T02:29:46.005Z,0.54
2023-02-06T02:30:46.018Z,0.55
2023-02-06T02:31:46.033Z,0.54
2023-02-06T02:32:45.980Z,0.54
2023-02-06T02:33:45.984Z,0.55
2023-02-06T02:34:45.937Z,0.54
2023-02-06T02:35:45.947Z,0.54
2023-02-06T02:36:45.900Z,0.54
2023-02-06T02:37:45.884Z,0.54
2023-02-06T02:38:46.631Z,0.54
2023-02-06T02:39:45.887Z,0.54
2023-02-06T02:40:45.846Z,0.55
2023-02-06T02:41:45.859Z,0.54
2023-02-06T02:42:45.820Z,0.54
2023-02-06T02:43:45.789Z,0.54
2023-02-06T02:44:45.762Z,0.54
2023-02-06T02:45:45.791Z,0.54
2023-02-06T02:46:45.768Z,0.55
2023-02-06T02:47:45.780Z,0.53
2023-02-06T02:48:45.733Z,0.54
2023-02-06T02:49:45.689Z,0.54
2023-02-06T02:50:45.693Z,0.53
2023-02-06T02:51:45.669Z,0.53
2023-02-06T02:52:45.656Z,0.54
2023-02-06T02:53:45.641Z,0.54
2023-02-06T02:54:45.635Z,0.54
2023-02-06T02:55:45.641Z,0.54
2023-02-06T02:56:45.595Z,0.53
2023-02-06T02:57:45.597Z,0.53
2023-02-06T02:58:45.568Z,0.53
2023-02-06T02:59:45.586Z,0.53
2023-02-06T03:00:45.597Z,0.54
2023-02-06T03:01:45.568Z,0.53
2023-02-06T03:02:45.541Z,0.53
2023-02-06T03:03:45.568Z,0.53
2023-02-06T03:04:45.508Z,0.53
2023-02-06T03:05:45.513Z,0.53
2023-02-06T03:06:45.495Z,0.52
2023-02-06T03:07:45.491Z,0.53
2023-02-06T03:08:45.513Z,0.52
2023-02-06T03:09:46.013Z,0.53
2023-02-06T03:10:45.418Z,0.53
2023-02-06T03:11:45.430Z,0.53
2023-02-06T03:12:45.385Z,0.53
2023-02-06T03:13:45.395Z,0.53
2023-02-06T03:14:45.373Z,0.53
2023-02-06T03:15:45.383Z,0.53
2023-02-06T03:16:45.380Z,0.53
2023-02-06T03:17:45.329Z,0.54
2023-02-06T03:18:45.295Z,0.54
2023-02-06T03:19:45.298Z,0.54
2023-02-06T03:20:45.273Z,0.54
2023-02-06T03:21:45.271Z,0.54
2023-02-06T03:22:45.266Z,0.54
2023-02-06T03:23:45.290Z,0.55
2023-02-06T03:24:45.214Z,0.54
2023-02-06T03:25:45.195Z,0.53
2023-02-06T03:26:45.232Z,0.53
2023-02-06T03:27:45.217Z,0.53
2023-02-06T03:28:45.179Z,0.53
2023-02-06T03:29:45.187Z,0.54
2023-02-06T03:30:45.307Z,0.54
2023-02-06T03:31:45.171Z,0.54
2023-02-06T03:32:45.182Z,0.54
2023-02-06T03:33:45.255Z,0.55
2023-02-06T03:34:45.080Z,0.55
2023-02-06T03:35:45.087Z,0.53
2023-02-06T03:36:45.106Z,0.55
2023-02-06T03:37:45.049Z,0.54
2023-02-06T03:38:45.091Z,0.54
2023-02-06T03:39:45.024Z,0.55
2023-02-06T03:40:45.019Z,0.55
2023-02-06T03:41:45.000Z,0.56
2023-02-06T03:42:44.979Z,0.54
2023-02-06T03:43:45.006Z,0.55
2023-02-06T03:44:45.015Z,0.56
2023-02-06T03:45:44.984Z,0.55
2023-02-06T03:46:44.932Z,0.56
2023-02-06T03:47:44.927Z,0.54
2023-02-06T03:48:44.894Z,0.55
2023-02-06T03:49:45.179Z,0.55
2023-02-06T03:50:44.879Z,0.55
2023-02-06T03:51:44.872Z,0.54
2023-02-06T03:52:44.878Z,0.55
2023-02-06T03:53:44.841Z,0.56
2023-02-06T03:54:45.041Z,0.55
2023-02-06T03:55:44.813Z,0.54
2023-02-06T03:56:44.832Z,0.54
2023-02-06T03:57:44.801Z,0.53
2023-02-06T03:58:44.802Z,0.54
2023-02-06T03:59:44.780Z,0.54
2023-02-06T04:00:44.750Z,0.54
2023-02-06T04:01:44.753Z,0.53
2023-02-06T04:02:44.738Z,0.54
2023-02-06T04:03:44.727Z,0.54
2023-02-06T04:04:44.712Z,0.53
2023-02-06T04:05:44.748Z,0.53
2023-02-06T04:06:44.696Z,0.54
2023-02-06T04:07:44.691Z,0.55
2023-02-06T04:08:44.688Z,0.55
2023-02-06T04:09:44.701Z,0.54
2023-02-06T04:10:44.677Z,0.54
2023-02-06T04:11:44.657Z,0.55
2023-02-06T04:12:44.615Z,0.55
2023-02-06T04:13:44.629Z,0.54
2023-02-06T04:14:44.641Z,0.54
2023-02-06T04:15:44.573Z,0.55
2023-02-06T04:16:44.615Z,0.54
2023-02-06T04:17:58.941Z,0.54
2023-02-06T04:18:45.624Z,0.54
2023-02-06T04:19:44.640Z,0.54
2023-02-06T04:20:44.609Z,0.54
2023-02-06T04:21:44.642Z,0.54
2023-02-06T04:22:44.594Z,0.54
2023-02-06T04:23:44.587Z,0.55
2023-02-06T04:24:44.680Z,0.54
2023-02-06T04:25:44.564Z,0.53
2023-02-06T04:26:44.570Z,0.54
2023-02-06T04:27:44.579Z,0.54
2023-02-06T04:28:44.526Z,0.54
2023-02-06T04:29:44.530Z,0.55
2023-02-06T04:30:44.558Z,0.54
2023-02-06T04:31:44.501Z,0.53
2023-02-06T04:32:44.483Z,0.54
2023-02-06T04:33:44.476Z,0.54
2023-02-06T04:34:44.521Z,0.54
2023-02-06T04:35:44.460Z,0.52
2023-02-06T04:36:44.461Z,0.53
2023-02-06T04:37:44.459Z,0.53
2023-02-06T04:38:44.438Z,0.53
2023-02-06T04:39:44.494Z,0.53
2023-02-06T04:40:44.425Z,0.52
2023-02-06T04:41:44.399Z,0.51
2023-02-06T04:42:44.465Z,0.52
2023-02-06T04:43:44.412Z,0.52
2023-02-06T04:44:44.389Z,0.52
2023-02-06T04:45:44.385Z,0.53
2023-02-06T04:46:44.427Z,0.52
2023-02-06T04:47:44.375Z,0.52
2023-02-06T04:48:44.344Z,0.52
2023-02-06T04:49:44.345Z,0.52
2023-02-06T04:50:44.701Z,0.51
2023-02-06T04:51:44.331Z,0.52
2023-02-06T04:52:44.334Z,0.52
2023-02-06T04:53:44.330Z,0.52
2023-02-06T04:54:44.321Z,0.53
2023-02-06T04:55:44.320Z,0.53
2023-02-06T04:56:44.288Z,0.51
2023-02-06T04:57:44.292Z,0.52
2023-02-06T04:58:44.293Z,0.52
2023-02-06T04:59:44.275Z,0.52
2023-02-06T05:00:44.297Z,0.52
2023-02-06T05:01:44.319Z,0.52
2023-02-06T05:02:44.264Z,0.52
2023-02-06T05:03:44.231Z,0.52
2023-02-06T05:04:44.236Z,0.52
2023-02-06T05:05:44.214Z,0.51
2023-02-06T05:06:44.203Z,0.51
2023-02-06T05:07:44.192Z,0.51
2023-02-06T05:08:44.188Z,0.51
2023-02-06T05:09:44.203Z,0.51
2023-02-06T05:10:44.193Z,0.51
2023-02-06T05:11:44.173Z,0.51
2023-02-06T05:12:44.205Z,0.52
2023-02-06T05:13:44.158Z,0.52
2023-02-06T05:14:44.165Z,0.52
2023-02-06T05:15:44.149Z,0.51
2023-02-06T05:16:44.111Z,0.51
2023-02-06T05:17:44.105Z,0.53
2023-02-06T05:18:44.115Z,0.55
2023-02-06T05:19:44.109Z,0.52
2023-02-06T05:20:44.129Z,0.52
2023-02-06T05:21:44.105Z,0.53
2023-02-06T05:22:44.083Z,0.52
2023-02-06T05:23:44.050Z,0.51
2023-02-06T05:24:44.048Z,0.52
2023-02-06T05:25:44.064Z,0.50
2023-02-06T05:26:44.037Z,0.52
2023-02-06T05:27:44.022Z,0.50
2023-02-06T05:28:44.010Z,0.51
2023-02-06T05:29:43.987Z,0.52
2023-02-06T05:30:44.039Z,0.51
2023-02-06T05:31:44.054Z,0.51
2023-02-06T05:32:43.961Z,0.53
2023-02-06T05:33:43.964Z,0.51
2023-02-06T05:34:43.945Z,0.52
2023-02-06T05:35:43.955Z,0.50
2023-02-06T05:36:43.925Z,0.53
2023-02-06T05:37:43.946Z,0.53
2023-02-06T05:38:44.718Z,0.53
2023-02-06T05:39:43.917Z,0.52
2023-02-06T05:40:43.910Z,0.52
2023-02-06T05:41:43.883Z,0.54
2023-02-06T05:42:43.888Z,0.52
2023-02-06T05:43:43.872Z,0.52
2023-02-06T05:44:43.869Z,0.51
2023-02-06T05:45:43.876Z,0.53
2023-02-06T05:46:43.845Z,0.52
2023-02-06T05:47:43.821Z,0.52
2023-02-06T05:48:43.845Z,0.52
2023-02-06T05:49:43.810Z,0.51
2023-02-06T05:50:43.806Z,0.54
2023-02-06T05:51:43.797Z,0.53
2023-02-06T05:52:43.778Z,0.52
2023-02-06T05:53:43.791Z,0.53
2023-02-06T05:54:43.768Z,0.51
2023-02-06T05:55:43.767Z,0.51
2023-02-06T05:56:43.752Z,0.51
2023-02-06T05:57:43.740Z,0.50
2023-02-06T05:58:43.731Z,0.50
2023-02-06T05:59:43.722Z,0.51
2023-02-06T06:00:43.709Z,0.52
2023-02-06T06:01:43.714Z,0.51
2023-02-06T06:02:43.713Z,0.52
2023-02-06T06:03:43.711Z,0.52
2023-02-06T06:04:44.242Z,0.53
2023-02-06T06:05:43.676Z,0.51
2023-02-06T06:06:43.712Z,0.51
2023-02-06T06:07:43.676Z,0.51
2023-02-06T06:08:43.655Z,0.51
2023-02-06T06:09:43.663Z,0.50
2023-02-06T06:10:43.642Z,0.51
2023-02-06T06:11:43.652Z,0.51
2023-02-06T06:12:43.618Z,0.50
2023-02-06T06:13:43.607Z,0.50
2023-02-06T06:14:43.625Z,0.51
2023-02-06T06:15:43.645Z,0.52
2023-02-06T06:16:43.600Z,0.52
2023-02-06T06:17:43.570Z,0.51
2023-02-06T06:18:43.576Z,0.51
2023-02-06T06:19:43.584Z,0.51
2023-02-06T06:20:43.592Z,0.52
2023-02-06T06:21:43.570Z,0.51
2023-02-06T06:22:43.549Z,0.52
2023-02-06T06:23:43.545Z,0.52
2023-02-06T06:24:44.212Z,0.54
2023-02-06T06:25:43.642Z,0.53
2023-02-06T06:26:43.637Z,0.52
2023-02-06T06:27:43.701Z,0.53
2023-02-06T06:28:43.499Z,0.53
2023-02-06T06:30:43.618Z,0.51
2023-02-06T06:31:43.470Z,0.34
2023-02-06T06:32:43.441Z,0.34
2023-02-06T06:33:43.578Z,0.34
2023-02-06T06:34:43.481Z,0.34
2023-02-06T06:35:43.458Z,0.34
2023-02-06T06:36:43.526Z,0.34
2023-02-06T06:37:43.413Z,0.34
2023-02-06T06:38:43.437Z,0.34
2023-02-06T06:39:43.462Z,0.34
2023-02-06T06:40:43.481Z,0.34
2023-02-06T06:41:43.483Z,0.34
2023-02-06T06:42:43.499Z,0.34
2023-02-06T06:43:43.503Z,0.34
2023-02-06T06:44:43.506Z,0.34
2023-02-06T06:45:43.564Z,0.34
2023-02-06T06:46:44.307Z,0.34
2023-02-06T06:47:43.559Z,0.34
2023-02-06T06:48:43.692Z,0.34
2023-02-06T06:49:46.274Z,0.42
2023-02-06T06:50:43.597Z,0.50
2023-02-06T06:51:44.247Z,0.52
2023-02-06T06:52:43.630Z,0.49
2023-02-06T06:53:44.411Z,0.50
2023-02-06T06:54:43.849Z,0.50
2023-02-06T06:55:43.712Z,0.50
2023-02-06T06:56:43.698Z,0.50
2023-02-06T06:57:43.694Z,0.50
2023-02-06T06:58:44.646Z,0.50
2023-02-06T06:59:44.222Z,0.49
2023-02-06T07:00:44.257Z,0.47
2023-02-06T07:01:43.786Z,0.46
2023-02-06T07:02:44.800Z,0.43
2023-02-06T07:03:43.692Z,0.50
2023-02-06T07:04:43.730Z,0.51
2023-02-06T07:05:43.737Z,0.51
2023-02-06T07:06:43.818Z,0.54
2023-02-06T07:07:43.735Z,0.55
2023-02-06T07:08:43.693Z,0.52
2023-02-06T07:09:44.294Z,0.51
2023-02-06T07:10:43.878Z,0.52
2023-02-06T07:11:43.722Z,0.54
2023-02-06T07:12:44.293Z,0.57
2023-02-06T07:13:43.759Z,0.56
2023-02-06T07:14:43.754Z,0.53
2023-02-06T07:15:43.738Z,0.53
2023-02-06T07:16:43.899Z,0.54
2023-02-06T07:17:43.828Z,0.57
2023-02-06T07:18:43.732Z,0.59
2023-02-06T07:19:43.832Z,0.65
2023-02-06T07:20:43.779Z,0.74
2023-02-06T07:21:43.743Z,0.68
2023-02-06T07:22:43.792Z,0.58
2023-02-06T07:23:43.742Z,0.54
2023-02-06T07:24:44.749Z,0.50
2023-02-06T07:25:46.763Z,0.51
2023-02-06T07:26:44.743Z,0.50
2023-02-06T07:27:43.805Z,0.51
2023-02-06T07:28:51.001Z,0.50
2023-02-06T07:29:43.784Z,0.50
2023-02-06T07:30:44.776Z,0.50
2023-02-06T07:31:43.794Z,0.51
2023-02-06T07:32:43.828Z,0.49
2023-02-06T07:33:43.984Z,0.46
2023-02-06T07:34:43.768Z,0.50
2023-02-06T07:35:43.848Z,0.51
2023-02-06T07:36:43.770Z,0.50
2023-02-06T07:37:43.821Z,0.53
2023-02-06T07:38:43.791Z,0.51
2023-02-06T07:39:43.759Z,0.50
2023-02-06T07:40:45.383Z,0.50
2023-02-06T07:41:43.911Z,0.51
2023-02-06T07:42:43.824Z,0.50
2023-02-06T07:43:44.027Z,0.51
2023-02-06T07:44:43.808Z,0.51
2023-02-06T07:45:43.806Z,0.52
2023-02-06T07:46:43.772Z,0.50
2023-02-06T07:47:43.799Z,0.53
2023-02-06T07:48:43.839Z,0.46
2023-02-06T07:49:43.849Z,0.34
2023-02-06T07:50:43.974Z,0.34
2023-02-06T07:51:43.812Z,0.34
2023-02-06T07:52:43.857Z,0.34
2023-02-06T07:53:43.829Z,0.34
2023-02-06T07:54:43.837Z,0.35
2023-02-06T07:55:44.764Z,0.42
2023-02-06T07:56:43.851Z,0.53
2023-02-06T07:57:43.999Z,0.76
2023-02-06T07:58:43.891Z,1.12
2023-02-06T07:59:43.891Z,1.14
2023-02-06T08:00:45.865Z,1.14
2023-02-06T08:01:44.070Z,1.08
2023-02-06T08:02:43.917Z,1.06
2023-02-06T08:03:44.777Z,1.78
2023-02-06T08:04:44.076Z,1.98
2023-02-06T08:05:44.821Z,2.76
2023-02-06T08:06:43.968Z,3.92
2023-02-06T08:07:44.206Z,3.94
2023-02-06T08:08:44.320Z,4.10
2023-02-06T08:09:43.992Z,4.65
2023-02-06T08:10:44.782Z,5.77
2023-02-06T08:11:44.049Z,8.04
2023-02-06T08:12:44.011Z,4.03
2023-02-06T08:13:44.087Z,4.50
2023-02-06T08:14:44.094Z,5.51
2023-02-06T08:15:44.675Z,7.41
2023-02-06T08:16:45.231Z,11.11
2023-02-06T08:17:44.090Z,12.61
2023-02-06T08:18:44.075Z,12.85
2023-02-06T08:19:44.055Z,13.22
2023-02-06T08:20:44.062Z,12.56
2023-02-06T08:21:44.217Z,12.50
2023-02-06T08:22:44.093Z,13.06
2023-02-06T08:23:44.056Z,12.58
2023-02-06T08:24:44.850Z,12.61
2023-02-06T08:25:44.281Z,10.68
2023-02-06T08:26:44.127Z,4.96
2023-02-06T08:27:44.110Z,1.80
2023-02-06T08:28:44.215Z,1.09
2023-02-06T08:29:44.084Z,1.18
2023-02-06T08:30:44.172Z,2.58
2023-02-06T08:31:44.142Z,3.29
2023-02-06T08:32:44.219Z,3.38
2023-02-06T08:33:44.081Z,4.15
2023-02-06T08:34:44.587Z,5.01
2023-02-06T08:35:44.082Z,5.14
2023-02-06T08:36:44.191Z,6.40
2023-02-06T08:37:44.081Z,7.26
2023-02-06T08:38:44.325Z,8.38
2023-02-06T08:39:44.094Z,8.71
2023-02-06T08:40:44.119Z,9.65
2023-02-06T08:41:44.085Z,9.19
2023-02-06T08:42:44.815Z,10.26
2023-02-06T08:43:44.373Z,11.15
2023-02-06T08:44:44.807Z,11.07
2023-02-06T08:45:44.832Z,12.14
2023-02-06T08:46:44.761Z,12.29
2023-02-06T08:47:44.132Z,13.30
2023-02-06T08:48:44.060Z,14.08
2023-02-06T08:49:44.777Z,15.39
2023-02-06T08:50:44.073Z,15.19
2023-02-06T08:51:44.790Z,16.75
2023-02-06T08:52:44.035Z,15.54
2023-02-06T08:53:44.066Z,14.62
2023-02-06T08:54:44.042Z,14.73
2023-02-06T08:55:44.004Z,14.44
2023-02-06T08:56:43.983Z,13.69
2023-02-06T08:57:44.089Z,13.33
2023-02-06T08:58:43.942Z,13.39
2023-02-06T08:59:44.329Z,62.64
2023-02-06T09:00:44.027Z,42.46
2023-02-06T09:01:43.993Z,31.18
2023-02-06T09:02:44.005Z,19.34
2023-02-06T09:03:43.888Z,15.76
2023-02-06T09:04:43.903Z,16.31
2023-02-06T09:05:43.963Z,14.77
2023-02-06T09:06:43.924Z,14.75
2023-02-06T09:07:44.788Z,13.86
2023-02-06T09:08:43.829Z,13.36
2023-02-06T09:09:43.838Z,13.26
2023-02-06T09:10:43.817Z,13.92
2023-02-06T09:11:43.800Z,13.93
2023-02-06T09:12:43.797Z,13.80
2023-02-06T09:13:43.772Z,13.47
2023-02-06T09:14:43.760Z,12.44
2023-02-06T09:15:43.847Z,12.78
2023-02-06T09:16:43.953Z,12.24
2023-02-06T09:17:44.291Z,12.14
2023-02-06T09:18:43.699Z,11.75
2023-02-06T09:19:43.692Z,11.80
2023-02-06T09:20:43.687Z,11.66
2023-02-06T09:21:43.646Z,12.31
2023-02-06T09:22:43.879Z,12.21
2023-02-06T09:23:43.627Z,11.86
2023-02-06T09:24:43.730Z,11.91
2023-02-06T09:25:43.572Z,12.07
2023-02-06T09:26:58.598Z,11.83
2023-02-06T09:27:44.582Z,11.85
2023-02-06T09:29:43.862Z,11.88
2023-02-06T09:30:43.845Z,11.29
2023-02-06T09:31:43.857Z,9.27
2023-02-06T09:32:43.862Z,9.44
2023-02-06T09:33:43.792Z,6.72
2023-02-06T09:34:43.789Z,5.95
2023-02-06T09:35:43.751Z,5.41
2023-02-06T09:36:43.707Z,5.57
2023-02-06T09:37:43.999Z,6.32
2023-02-06T09:38:43.862Z,7.20
2023-02-06T09:39:43.755Z,4.98
2023-02-06T09:40:43.829Z,5.36
2023-02-06T09:41:43.668Z,4.65
2023-02-06T09:42:43.670Z,4.29
2023-02-06T09:43:43.748Z,4.12
2023-02-06T09:44:43.686Z,3.81
2023-02-06T09:45:43.643Z,3.45
2023-02-06T09:46:43.682Z,3.52
2023-02-06T09:47:45.174Z,3.40
2023-02-06T09:48:43.680Z,3.81
2023-02-06T09:49:43.634Z,3.97
2023-02-06T09:50:43.649Z,3.73
2023-02-06T09:51:43.651Z,3.58
2023-02-06T09:52:43.644Z,2.82
2023-02-06T09:53:43.603Z,3.16
2023-02-06T09:54:43.585Z,2.32
2023-02-06T09:55:43.592Z,2.41
2023-02-06T09:56:43.612Z,2.67
2023-02-06T09:58:43.646Z,2.36
2023-02-06T10:01:43.852Z,3.22
2023-02-06T10:02:43.559Z,3.13
2023-02-06T10:03:43.642Z,3.75
2023-02-06T10:04:43.534Z,4.21
2023-02-06T10:05:43.518Z,4.30
2023-02-06T10:06:43.604Z,3.99
2023-02-06T10:07:43.505Z,4.31
2023-02-06T12:05:43.742Z,5.74
2023-02-06T12:06:43.820Z,5.56
2023-02-06T12:07:43.823Z,5.98
2023-02-06T12:08:43.791Z,6.21
2023-02-06T12:09:43.727Z,6.58
2023-02-06T12:10:43.769Z,7.51
2023-02-06T12:11:43.739Z,8.37
2023-02-06T12:12:43.758Z,9.52
2023-02-06T12:13:43.795Z,10.39
2023-02-06T12:14:43.826Z,11.98
2023-02-06T12:15:46.988Z,12.96
2023-02-06T12:16:43.809Z,13.01
2023-02-06T12:17:43.760Z,13.48
2023-02-06T12:18:43.721Z,14.68
2023-02-06T12:19:43.735Z,17.98
2023-02-06T12:20:43.723Z,23.08
2023-02-06T12:21:43.824Z,26.00
2023-02-06T12:22:43.739Z,29.14
2023-02-06T12:23:43.718Z,32.56
2023-02-06T12:24:43.728Z,37.24
2023-02-06T12:25:43.796Z,44.25
2023-02-06T12:26:43.782Z,48.66
2023-02-06T12:27:43.758Z,56.10
2023-02-06T12:28:45.298Z,62.56
2023-02-06T12:29:43.686Z,67.89
2023-02-06T12:30:44.789Z,70.41
2023-02-06T12:31:43.738Z,75.60
2023-02-06T12:32:43.779Z,78.44
2023-02-06T12:33:43.747Z,84.40
2023-02-06T12:34:43.648Z,87.34
2023-02-06T12:35:43.658Z,90.46
2023-02-06T12:36:43.735Z,96.75
2023-02-06T12:37:43.670Z,105.50
2023-02-06T12:38:43.645Z,108.95
2023-02-06T12:39:43.646Z,118.61
2023-02-06T12:40:43.674Z,118.82
2023-02-06T12:41:43.797Z,119.67
2023-02-06T12:42:43.722Z,122.58
2023-02-06T12:43:43.745Z,128.86
2023-02-06T12:44:43.652Z,140.96
2023-02-06T12:45:43.613Z,142.87
2023-02-06T12:46:43.626Z,147.98
2023-02-06T12:47:44.346Z,151.34
2023-02-06T12:48:43.556Z,151.59
2023-02-06T12:49:44.358Z,152.32
2023-02-06T12:50:43.556Z,154.63
2023-02-06T12:51:43.546Z,157.85
2023-02-06T12:52:43.585Z,142.68
2023-02-06T12:53:43.531Z,145.62
2023-02-06T12:54:43.532Z,146.23
2023-02-06T12:55:43.502Z,149.13
2023-02-06T12:56:43.513Z,155.20
2023-02-06T12:57:43.558Z,152.65
2023-02-06T12:58:43.618Z,160.23
2023-02-06T12:59:56.659Z,168.72
2023-02-06T13:00:44.489Z,169.26
2023-02-06T13:01:43.501Z,171.00
2023-02-06T13:02:43.527Z,174.22
2023-02-06T13:03:43.452Z,180.56
2023-02-06T13:04:43.494Z,192.41
2023-02-06T13:05:43.508Z,193.56
2023-02-06T13:06:43.449Z,194.22
2023-02-06T13:07:49.314Z,200.74
2023-02-06T13:08:44.414Z,200.98
2023-02-06T13:09:43.426Z,201.60
2023-02-06T13:10:44.352Z,203.89
2023-02-06T13:11:44.358Z,205.32
2023-02-06T13:12:43.448Z,210.11
2023-02-06T13:13:43.416Z,210.02
2023-02-06T13:14:43.362Z,214.47
2023-02-06T13:15:43.387Z,209.33
2023-02-06T13:16:43.334Z,214.01
2023-02-06T13:17:43.409Z,213.64
2023-02-06T13:18:43.342Z,216.71
2023-02-06T13:19:43.362Z,212.81
2023-02-06T13:20:43.298Z,217.17
2023-02-06T13:21:43.408Z,215.64
2023-02-06T13:23:43.312Z,214.70
2023-02-06T13:24:43.335Z,212.17
2023-02-06T13:25:43.487Z,212.83
2023-02-06T13:26:43.901Z,211.12
2023-02-06T13:27:43.415Z,211.54
2023-02-06T13:28:43.430Z,212.26
2023-02-06T13:29:43.418Z,212.97
2023-02-06T13:30:43.485Z,215.43
2023-02-06T13:31:43.355Z,219.92
2023-02-06T13:32:43.382Z,218.08
2023-02-06T13:33:43.340Z,216.74
2023-02-06T13:34:43.963Z,217.71
2023-02-06T13:35:43.343Z,211.45
2023-02-06T13:36:43.397Z,215.08
2023-02-06T13:37:43.313Z,212.05
2023-02-06T13:38:43.306Z,210.39
2023-02-06T13:39:43.358Z,208.80
2023-02-06T13:40:43.353Z,201.93
2023-02-06T13:41:43.878Z,209.32
2023-02-06T13:42:43.396Z,209.33
2023-02-06T13:43:43.411Z,209.95
2023-02-06T13:44:43.350Z,209.82
2023-02-06T13:46:43.901Z,208.09
2023-02-06T13:47:43.323Z,208.70
2023-02-06T13:48:46.353Z,205.63
2023-02-06T13:49:43.312Z,207.02
2023-02-06T13:50:43.388Z,203.14
2023-02-06T13:51:43.910Z,206.33
2023-02-06T13:52:43.463Z,203.69
2023-02-06T13:53:43.530Z,192.50
2023-02-06T13:54:43.478Z,198.61
2023-02-06T13:55:43.477Z,190.85
2023-02-06T13:56:43.903Z,194.31
2023-02-06T13:57:43.432Z,191.86
2023-02-06T13:58:43.387Z,192.31
2023-02-06T13:59:43.224Z,192.60
2023-02-06T14:01:43.229Z,179.84
2023-02-06T14:02:43.186Z,183.45
2023-02-06T14:03:43.114Z,182.65
2023-02-06T14:04:43.131Z,184.38
2023-02-06T14:05:43.176Z,180.80
2023-02-06T14:06:43.136Z,183.43
2023-02-06T14:07:43.097Z,177.99
2023-02-06T14:08:43.079Z,181.08
2023-02-06T14:09:43.980Z,176.94
2023-02-06T14:11:43.060Z,178.31
2023-02-06T14:12:43.032Z,173.66
2023-02-06T14:13:43.042Z,177.18
2023-02-06T14:14:43.026Z,179.92
2023-02-06T14:15:43.065Z,170.73
2023-02-06T14:16:42.996Z,168.66
2023-02-06T14:17:42.973Z,176.79
2023-02-06T14:18:42.968Z,171.16
2023-02-06T14:19:43.013Z,172.74
2023-02-06T14:20:42.982Z,168.79
2023-02-06T14:21:42.935Z,170.32
2023-02-06T14:22:42.939Z,163.47
2023-02-06T14:23:44.684Z,167.30
2023-02-06T14:25:42.940Z,164.62
2023-02-06T14:26:42.947Z,163.15
2023-02-06T14:27:42.952Z,162.96
2023-02-06T14:28:42.925Z,165.72
2023-02-06T14:29:42.877Z,163.47
2023-02-06T14:30:42.915Z,160.09
2023-02-06T14:31:45.723Z,160.12
2023-02-06T14:32:42.862Z,164.98
2023-02-06T14:33:42.848Z,154.31
2023-02-06T14:34:42.936Z,158.08
2023-02-06T14:35:42.852Z,158.37
2023-02-06T14:36:42.868Z,156.62
2023-02-06T14:37:42.826Z,156.86
2023-02-06T14:38:42.789Z,155.31
2023-02-06T14:39:42.799Z,153.71
2023-02-06T14:40:42.930Z,152.96
2023-02-06T14:41:42.777Z,151.68
2023-02-06T14:42:42.763Z,146.86
2023-02-06T14:43:42.729Z,146.99
2023-02-06T14:44:42.750Z,148.55
2023-02-06T14:45:43.337Z,147.23
2023-02-06T14:46:42.796Z,149.95
2023-02-06T14:47:42.735Z,147.23
2023-02-06T14:48:43.396Z,141.86
2023-02-06T14:49:42.855Z,144.15
2023-02-06T14:50:42.711Z,144.14
2023-02-06T14:51:42.714Z,136.77
2023-02-06T14:52:42.665Z,140.72
2023-02-06T14:53:42.646Z,137.97
2023-02-06T14:54:42.672Z,138.32
2023-02-06T14:55:42.705Z,137.80
2023-02-06T14:56:42.638Z,133.57
2023-02-06T14:57:42.640Z,132.96
2023-02-06T14:58:42.648Z,132.48
2023-02-06T14:59:42.582Z,135.48
2023-02-06T15:00:42.602Z,133.40
2023-02-06T15:01:42.576Z,128.68
2023-02-06T15:02:42.565Z,125.09
2023-02-06T15:03:42.586Z,131.07
2023-02-06T15:04:42.559Z,129.00
2023-02-06T15:05:42.551Z,131.97
2023-02-06T15:06:43.414Z,126.73
2023-02-06T15:07:42.496Z,128.18
2023-02-06T15:08:42.537Z,126.15
2023-02-06T15:09:42.515Z,122.96
2023-02-06T15:10:42.509Z,118.03
2023-02-06T15:11:42.497Z,124.28
2023-02-06T15:12:42.496Z,120.92